Matches at ASUS ROG Royal Series

Home | League Details
Match-ID Radiant Dire Date Begin End Duration Delay DotaTV Peak
0 Mad Wraith King wise5 2015-12-11 15:10 15:10 00:00:00 120 0
1943276492 World of Winner Team Misplay 2015-11-18 13:05 13:45 00:25:28 120 8
1943281215 Lotus Fotus Zero Latitude 2015-11-18 13:05 14:35 00:50:23 120 8
1943364461 Lotus Fotus Zero Latitude 2015-11-18 13:45 14:05 00:14:49 120 16
1943418612 NUMPANG LEWAT AbsoluteVodka .. 2015-11-18 14:10 14:10 00:00:00 120 1
1943437786 NUMPANG LEWAT AbsoluteVodka .. 2015-11-18 14:20 14:20 00:00:00 120 1
1943462017 N/A Team LicentiA 2015-11-18 14:30 15:15 00:26:16 120 15
1943473488 NUMPANG LEWAT AbsoluteVodka .. 2015-11-18 14:35 14:35 00:00:00 120 0
1943494485 NUMPANG LEWAT AbsoluteVodka .. 2015-11-18 14:45 15:40 00:35:23 120 22
1943536851 Dhyto cyber.inc FASTLANE GAMING 2015-11-18 15:05 15:40 00:19:27 120 8
1943556249 SAMBALADOG Fight 4 GLory 2015-11-18 15:15 15:55 00:29:25 120 14
1945220346 5Widower's DoGo 2015-11-19 12:55 13:55 00:46:31 120 9
1945237712 Un'xpected Screamy Cream 2015-11-19 13:00 13:50 00:34:17 120 4
1945356240 TWLIGHT GAMING Comic[X] 2015-11-19 14:00 14:45 00:31:31 120 23
1945383401 Deo Volente Z'ONE 2015-11-19 14:10 15:20 00:46:50 120 18
1945491346 Digital United Wadepley Rekt 2015-11-19 15:00 16:05 00:49:34 120 3
1945528041 One Last Hope EXODUS BURN Semarang 2015-11-19 15:15 16:05 00:34:06 120 17
1947305765 Battle In Nation Just a Start 2015-11-20 13:05 13:35 00:15:03 120 11
1947309017 Play With Fuckers Best Teacher 2015-11-20 13:05 13:40 00:21:15 120 10
1947450181 Medan Tulen Team D-Company [REVOLUSI] 2015-11-20 14:05 14:50 00:25:03 120 12
1947466614 Noob is U Kanaya 2015-11-20 14:15 14:35 00:11:36 120 7
1947567959 EXODUS eSports Semarang World of Winner 2015-11-20 15:00 15:30 00:18:44 120 36
1947597155 World of Winner SJ Zero Latitude 2015-11-20 15:10 15:50 00:19:42 120 12
1948871341 MartabaX Do Or Die .Classic 2015-11-21 05:15 06:05 00:33:09 120 23
1949034674 FASTLANE GAMING Fight 4 GLory 2015-11-21 07:00 07:40 00:25:55 120 13
1949053482 Un'xpected 5Widower's 2015-11-21 07:15 08:05 00:36:30 120 24
1949164212 Comic[X] Z'ONE 2015-11-21 08:10 08:45 00:20:33 120 16
1949298133 Digital United EXODUS BURN Semarang 2015-11-21 09:15 10:30 00:48:40 120 13
1949391964 Just a Start Best Teacher 2015-11-21 10:00 10:00 00:00:00 120 0
1949515235 Kanaya Team D-Company [REVOLUSI] 2015-11-21 11:00 11:00 00:00:00 120 2
1949546280 N/A N/A 2015-11-21 11:20 11:40 00:10:05 120 8
1949673821 EXODUS eSports Semarang Zero Latitude 2015-11-21 12:20 13:10 00:29:19 120 63
1949810729 Bibir Iwet Gaming Esport Do Or Die .Classic 2015-11-21 13:25 14:10 00:33:01 120 31
1951441407 FASTLANE GAMING Un'xpected 2015-11-22 05:10 05:55 00:27:01 120 28
1951521272 Z'ONE EXODUS BURN Semarang 2015-11-22 06:05 07:10 00:50:09 120 33
1951657076 Team D-Company [REVOLUSI] Just a Start 2015-11-22 07:20 08:00 00:26:21 120 34
1951778247 Zero Latitude Bibir Iwet Gaming Esport 2015-11-22 08:20 09:05 00:26:24 120 59
1951904382 FASTLANE GAMING EXODUS BURN Semarang 2015-11-22 09:20 10:30 00:53:57 120 66
1952029631 Just a Start Zero Latitude 2015-11-22 10:15 10:50 00:22:54 120 45
1952136463 EXODUS BURN Semarang Just a Start 2015-11-22 11:05 11:40 00:23:55 120 38
1952444075 Zero Latitude FASTLANE GAMING 2015-11-22 13:15 13:55 00:23:55 120 60
1952566662 FASTLANE GAMING Zero Latitude 2015-11-22 14:05 14:30 00:15:24 120 55
1986024234 .T.Gaming SAMBALADO 2015-12-07 13:10 13:45 00:23:22 120 36
1986156750 INFAMOUS~ Dota2IndonesiaTV 2015-12-07 14:05 14:45 00:29:02 120 37
1986311463 Putra Bismo Kanaya 2015-12-07 15:05 15:05 00:00:00 120 0
1986319860 Putra Bismo Kanaya 2015-12-07 15:10 15:10 00:00:00 120 2
1988290052 GazaK-GiziK Ivana + 4 2015-12-08 14:00 14:45 00:20:56 120 14
1988444126 Speednet Bibir Iwet Gaming Esport 2015-12-08 15:05 16:05 00:44:10 120 33
1990333487 XLITE Good Ancient Gaming 2015-12-09 13:10 13:50 00:21:24 120 20
1990465310 Universitas Brengos Nirvana.Mix 2015-12-09 14:15 14:50 00:20:51 120 22
1990604438 AA 80 JT Digital United 2015-12-09 15:10 15:55 00:26:15 120 28
1992428703 KingKongNet N/A 2015-12-10 13:15 13:50 00:23:29 120 9
1992714118 Chocolate -Monster N/A 2015-12-10 15:15 16:00 00:32:52 120 6
1992724750 HAPPY GENIUS Kraken Project 2015-12-10 15:20 16:15 00:43:51 120 20
1994542315 Moon Gale Anti Venge's 2015-12-11 13:05 13:40 00:16:42 120 13
1994555985 Electra Crew .T.Gaming 2015-12-11 13:15 14:00 00:31:01 120 16
1994692271 ALLSTARs`GG N/A 2015-12-11 14:10 15:25 00:55:09 120 43
1994701180 Come Or Die Kanaya 2015-12-11 14:10 14:40 00:19:53 120 18
1994859791 Vayn.Art Dinzyie Brother never Gank 2015-12-11 15:15 15:45 00:15:34 120 17
1994886696 Stop Illal Carry Ivana + 4 2015-12-11 15:25 16:10 00:21:28 120 22
1996157355 N/A Bibir Iwet Gaming Esport 2015-12-12 05:05 06:15 00:47:09 120 46
1996170519 Grem`oRy Good Ancient Gaming 2015-12-12 05:15 05:40 00:13:05 120 6
1996257217 Barrack Gaming Nirvana.Mix 2015-12-12 06:15 06:50 00:12:53 120 22
1996282068 Victory.Salad Digital United 2015-12-12 06:30 07:00 00:15:11 120 27
1996354840 Wars Champion Indonesia X-ALX 2015-12-12 07:10 07:45 00:20:21 120 40
1996365249 FR13ND Ethusiasm ATERADION 2015-12-12 07:20 07:35 00:00:00 120 4
1996408942 FR13ND Ethusiasm ATERADION 2015-12-12 07:40 08:20 00:32:00 120 27
1996457043 Siberian's Indogs RevivaL.eSports 2015-12-12 08:10 08:55 00:23:27 120 34
1996501188 GGA.Plus+ WildLife Gaming 2015-12-12 08:35 09:05 00:17:11 120 19
1996593278 One Last Hope Chocolate -Monster 2015-12-12 09:20 09:50 00:16:19 120 29
1996605952 Comet Net HAPPY GENIUS 2015-12-12 09:25 10:20 00:29:23 120 17
1996684526 .T.Gaming ALLSTARs`GG 2015-12-12 10:05 10:45 00:25:57 120 22
1996791976 Kanaya Dinzyie Brother never Gank 2015-12-12 10:55 11:45 00:34:32 120 142
1996801562 Ivana + 4 PAWPAWPAWPAW 2015-12-12 11:00 11:50 00:32:49 120 25
1996959466 Digital United X-ALX 2015-12-12 12:15 13:05 00:30:00 120 47
1996965895 Barrack Gaming Good Ancient Gaming 2015-12-12 12:15 13:05 00:30:15 120 16
1997102347 GGA.Plus+ One Last Hope 2015-12-12 13:15 13:55 00:26:12 120 36
1997119693 FR13ND Ethusiasm RevivaL.eSports 2015-12-12 13:20 13:55 00:16:41 120 26
1998937896 Ivana + 4 Barrack Gaming 2015-12-13 06:05 07:10 00:37:37 120 53
1999060593 ALLSTARs`GG Kanaya 2015-12-13 07:15 07:45 00:15:32 120 95
1999068306 X-ALX RevivaL.eSports 2015-12-13 07:20 08:25 00:37:41 120 94
1999163830 GGA.Plus+ LPG. 2015-12-13 08:05 08:30 00:12:57 120 8
1999281050 ALLSTARs`GG Barrack Gaming 2015-12-13 09:00 09:40 00:25:47 120 96
1999428389 X-ALX GGA.Plus+ 2015-12-13 10:10 11:10 00:37:24 120 100
1999576703 Barrack Gaming GGA.Plus+ 2015-12-13 11:20 12:05 00:37:19 120 67
1999813908 ALLSTARs`GG X-ALX 2015-12-13 13:00 14:05 00:48:57 120 117
2000008972 X-ALX ALLSTARs`GG 2015-12-13 14:15 14:55 00:04:04 120 85
2000128857 X-ALX ALLSTARs`GG 2015-12-13 15:00 16:00 00:55:25 120 156
2000313407 ALLSTARs`GG X-ALX 2015-12-13 16:15 16:50 00:22:01 120 105
2018947052 BABYFACE CLUB GamesWithoutLimits 2015-12-21 13:10 14:45 01:09:21 120 8
2019079487 PsychoID Casper Wisp E-Sports 2015-12-21 14:05 14:50 00:27:50 120 3
2019218566 INFAMOUS~ A3L 2015-12-21 15:05 15:45 00:22:21 120 7
2021191641 Team Halberd MagnumOpus 2015-12-22 13:10 13:50 00:20:27 120 12
2021305602 Kraken Project Our Friendship Never Dies 2015-12-22 14:00 15:25 01:08:03 120 11
2021453267 Dinzyie Brother never Gank DoGo 2015-12-22 15:00 15:40 00:28:12 120 4
2023456451 Rakyat Gaiming Ivana + 4 2015-12-23 13:10 13:45 00:22:59 120 1
2023470558 Anti Venge's Uprising Star 2015-12-23 13:15 14:15 00:36:17 120 8
2023582091 FISKERRRRRRR Revanthane 2015-12-23 14:00 14:30 00:14:23 120 4
2023733908 No Kids Allowed TrusT Xeon 2015-12-23 15:00 15:05 00:00:00 120 0
2023761857 No Kids Allowed TrusT Xeon 2015-12-23 15:15 15:35 00:10:39 120 0
2025756465 Friendship Never Dies HAPPY GENIUS 2015-12-24 13:10 13:45 00:21:55 120 6
2025821732 FIVE HEADS GAMING DuubStep Gaming 2015-12-24 13:40 14:20 00:28:53 120 3
2025895221 N/A Respect Your Fellow Gamers 2015-12-24 14:15 14:50 00:23:31 120 3
2026006333 WildLife Gaming Pandora E-Sports 2015-12-24 15:00 16:25 00:34:43 120 7
2026020020 RevivaL.eSports MILFs 2015-12-24 15:05 15:35 00:16:34 120 3
2029711208 NGOPI JOO!! Electric Jaguar Esport Team 2015-12-26 05:15 06:00 00:25:49 120 8
2029786943 GamesWithoutLimits PsychoID 2015-12-26 06:05 06:05 00:00:00 120 0
2029795894 GamesWithoutLimits PsychoID 2015-12-26 06:10 07:30 00:43:26 120 8
2029887486 INFAMOUS~ Team Halberd 2015-12-26 07:05 08:00 00:35:56 120 7
2030002538 Our Friendship Never Dies Dinzyie Brother never Gank 2015-12-26 08:05 09:15 00:58:41 120 6
2030142555 Ivana + 4 FISKERRRRRRR 2015-12-26 09:15 10:10 00:36:34 120 8
2030250469 Friendship Never Dies No Kids Allowed 2015-12-26 10:05 11:00 00:37:45 120 9
2030403901 Uprising Star DuubStep Gaming 2015-12-26 11:15 11:55 00:15:07 120 10
2030661859 RevivaL.eSports Electric Jaguar Esport Team 2015-12-26 13:05 14:00 00:40:26 120 23
2030865727 GamesWithoutLimits Team Halberd 2015-12-26 14:20 15:00 00:22:23 120 3
2030875066 Respect Your Fellow Gamers Pandora E-Sports 2015-12-26 14:25 14:40 00:00:00 120 4
2030927981 Respect Your Fellow Gamers Pandora E-Sports 2015-12-26 14:45 15:10 00:24:08 120 3
2031007886 Dinzyie Brother never Gank FISKERRRRRRR 2015-12-26 15:10 15:55 00:24:41 120 10
2032485720 Uprising Star Friendship Never Dies 2015-12-27 05:45 06:15 00:42:09 120 14
2032550169 Pandora E-Sports Electric Jaguar Esport Team 2015-12-27 06:10 07:05 00:27:47 120 26
2032644578 Team Halberd FISKERRRRRRR 2015-12-27 07:05 08:05 00:42:34 120 21
2032761314 Friendship Never Dies Electric Jaguar Esport Team 2015-12-27 08:05 08:45 00:31:00 120 11
2032864399 FISKERRRRRRR Friendship Never Dies 2015-12-27 08:50 09:45 00:38:27 120 22
2033193209 Team Halberd Electric Jaguar Esport Team 2015-12-27 11:20 11:50 00:16:36 120 29
2033295024 Electric Jaguar Esport Team Team Halberd 2015-12-27 12:00 12:50 00:12:44 120 19
2147483647 N/A N/A 2016-08-24 14:10 16:30 01:09:02 120 84